sensor_id;sensor_type;location;lat;lon;timestamp;P1;durP1;ratioP1;P2;durP2;ratioP2
22949;SDS011;11641;51.018;4.474;2023-01-26T00:00:53;108.75;;;32.92;;
22949;SDS011;11641;51.018;4.474;2023-01-26T00:03:20;102.80;;;31.95;;
22949;SDS011;11641;51.018;4.474;2023-01-26T00:05:48;99.03;;;33.47;;
22949;SDS011;11641;51.018;4.474;2023-01-26T00:08:16;103.05;;;32.92;;
22949;SDS011;11641;51.018;4.474;2023-01-26T00:10:42;115.70;;;34.60;;
22949;SDS011;11641;51.018;4.474;2023-01-26T00:13:15;104.72;;;34.22;;
22949;SDS011;11641;51.018;4.474;2023-01-26T00:15:48;104.90;;;32.75;;
22949;SDS011;11641;51.018;4.474;2023-01-26T00:18:14;103.10;;;33.45;;
22949;SDS011;11641;51.018;4.474;2023-01-26T00:20:39;97.70;;;33.30;;
22949;SDS011;11641;51.018;4.474;2023-01-26T00:23:05;95.70;;;30.50;;
22949;SDS011;11641;51.018;4.474;2023-01-26T00:25:33;106.32;;;33.63;;
22949;SDS011;11641;51.018;4.474;2023-01-26T00:28:01;101.97;;;33.13;;
22949;SDS011;11641;51.018;4.474;2023-01-26T00:30:26;100.50;;;32.28;;
22949;SDS011;11641;51.018;4.474;2023-01-26T00:32:52;98.38;;;30.42;;
22949;SDS011;11641;51.018;4.474;2023-01-26T00:35:18;99.43;;;32.42;;
22949;SDS011;11641;51.018;4.474;2023-01-26T00:37:46;98.93;;;30.80;;
22949;SDS011;11641;51.018;4.474;2023-01-26T00:40:11;107.75;;;31.77;;
22949;SDS011;11641;51.018;4.474;2023-01-26T00:42:37;92.95;;;29.60;;
22949;SDS011;11641;51.018;4.474;2023-01-26T00:45:04;96.53;;;30.85;;
22949;SDS011;11641;51.018;4.474;2023-01-26T00:47:30;95.18;;;30.85;;
22949;SDS011;11641;51.018;4.474;2023-01-26T00:49:56;93.57;;;30.40;;
22949;SDS011;11641;51.018;4.474;2023-01-26T00:52:21;96.55;;;30.08;;
22949;SDS011;11641;51.018;4.474;2023-01-26T00:54:47;96.60;;;29.63;;
22949;SDS011;11641;51.018;4.474;2023-01-26T00:57:12;88.60;;;27.40;;
22949;SDS011;11641;51.018;4.474;2023-01-26T00:59:38;92.88;;;30.80;;
22949;SDS011;11641;51.018;4.474;2023-01-26T01:02:04;85.45;;;28.20;;
22949;SDS011;11641;51.018;4.474;2023-01-26T01:04:29;97.93;;;29.63;;
22949;SDS011;11641;51.018;4.474;2023-01-26T01:06:56;101.55;;;30.20;;
22949;SDS011;11641;51.018;4.474;2023-01-26T01:09:24;95.57;;;29.63;;
22949;SDS011;11641;51.018;4.474;2023-01-26T01:11:50;95.22;;;29.15;;
22949;SDS011;11641;51.018;4.474;2023-01-26T01:14:16;92.57;;;29.85;;
22949;SDS011;11641;51.018;4.474;2023-01-26T01:16:42;94.05;;;28.20;;
22949;SDS011;11641;51.018;4.474;2023-01-26T01:19:12;89.85;;;29.23;;
22949;SDS011;11641;51.018;4.474;2023-01-26T01:21:39;95.25;;;30.33;;
22949;SDS011;11641;51.018;4.474;2023-01-26T01:24:08;99.45;;;28.67;;
22949;SDS011;11641;51.018;4.474;2023-01-26T01:26:33;89.78;;;27.77;;
22949;SDS011;11641;51.018;4.474;2023-01-26T01:29:02;90.20;;;28.58;;
22949;SDS011;11641;51.018;4.474;2023-01-26T01:31:28;92.32;;;28.90;;
22949;SDS011;11641;51.018;4.474;2023-01-26T01:33:54;84.55;;;27.05;;
22949;SDS011;11641;51.018;4.474;2023-01-26T01:36:20;86.40;;;28.05;;
22949;SDS011;11641;51.018;4.474;2023-01-26T01:38:49;92.03;;;28.10;;
22949;SDS011;11641;51.018;4.474;2023-01-26T01:41:16;97.95;;;28.27;;
22949;SDS011;11641;51.018;4.474;2023-01-26T01:43:45;88.30;;;29.33;;
22949;SDS011;11641;51.018;4.474;2023-01-26T01:49:05;92.75;;;28.83;;
22949;SDS011;11641;51.018;4.474;2023-01-26T01:51:49;86.90;;;27.60;;
22949;SDS011;11641;51.018;4.474;2023-01-26T01:54:20;90.65;;;27.85;;
22949;SDS011;11641;51.018;4.474;2023-01-26T01:56:55;85.10;;;27.83;;
22949;SDS011;11641;51.018;4.474;2023-01-26T01:59:23;85.10;;;27.35;;
22949;SDS011;11641;51.018;4.474;2023-01-26T02:01:53;80.40;;;26.77;;
22949;SDS011;11641;51.018;4.474;2023-01-26T02:04:20;89.85;;;27.10;;
22949;SDS011;11641;51.018;4.474;2023-01-26T02:06:48;91.20;;;29.17;;
22949;SDS011;11641;51.018;4.474;2023-01-26T02:09:19;90.47;;;28.00;;
22949;SDS011;11641;51.018;4.474;2023-01-26T02:12:16;92.72;;;29.58;;
22949;SDS011;11641;51.018;4.474;2023-01-26T02:14:44;90.85;;;28.73;;
22949;SDS011;11641;51.018;4.474;2023-01-26T02:17:10;91.20;;;28.10;;
22949;SDS011;11641;51.018;4.474;2023-01-26T02:22:06;102.72;;;30.55;;
22949;SDS011;11641;51.018;4.474;2023-01-26T02:24:40;99.22;;;30.45;;
22949;SDS011;11641;51.018;4.474;2023-01-26T02:27:07;99.43;;;30.75;;
22949;SDS011;11641;51.018;4.474;2023-01-26T02:29:34;93.22;;;30.50;;
22949;SDS011;11641;51.018;4.474;2023-01-26T02:32:00;102.68;;;32.45;;
22949;SDS011;11641;51.018;4.474;2023-01-26T02:34:27;98.55;;;30.30;;
22949;SDS011;11641;51.018;4.474;2023-01-26T02:36:56;101.40;;;33.38;;
22949;SDS011;11641;51.018;4.474;2023-01-26T02:39:31;92.97;;;31.65;;
22949;SDS011;11641;51.018;4.474;2023-01-26T02:41:59;101.63;;;32.58;;
22949;SDS011;11641;51.018;4.474;2023-01-26T02:44:43;104.38;;;30.92;;
22949;SDS011;11641;51.018;4.474;2023-01-26T02:47:11;98.50;;;31.77;;
22949;SDS011;11641;51.018;4.474;2023-01-26T02:49:38;103.70;;;33.15;;
22949;SDS011;11641;51.018;4.474;2023-01-26T02:52:16;101.88;;;32.95;;
22949;SDS011;11641;51.018;4.474;2023-01-26T02:54:46;99.88;;;33.17;;
22949;SDS011;11641;51.018;4.474;2023-01-26T02:57:32;95.93;;;31.55;;
22949;SDS011;11641;51.018;4.474;2023-01-26T02:59:59;99.60;;;33.00;;
22949;SDS011;11641;51.018;4.474;2023-01-26T03:02:25;97.85;;;32.92;;
22949;SDS011;11641;51.018;4.474;2023-01-26T03:04:51;98.43;;;33.75;;
22949;SDS011;11641;51.018;4.474;2023-01-26T03:07:16;94.70;;;32.65;;
22949;SDS011;11641;51.018;4.474;2023-01-26T03:09:42;94.38;;;32.25;;
22949;SDS011;11641;51.018;4.474;2023-01-26T03:12:07;95.35;;;33.08;;
22949;SDS011;11641;51.018;4.474;2023-01-26T03:14:33;98.45;;;32.42;;
22949;SDS011;11641;51.018;4.474;2023-01-26T03:16:59;88.15;;;31.60;;
22949;SDS011;11641;51.018;4.474;2023-01-26T03:19:24;95.28;;;32.42;;
22949;SDS011;11641;51.018;4.474;2023-01-26T03:22:11;92.13;;;32.35;;
22949;SDS011;11641;51.018;4.474;2023-01-26T03:24:56;92.75;;;32.38;;
22949;SDS011;11641;51.018;4.474;2023-01-26T03:27:44;101.40;;;33.47;;
22949;SDS011;11641;51.018;4.474;2023-01-26T03:30:11;92.88;;;31.25;;
22949;SDS011;11641;51.018;4.474;2023-01-26T03:32:38;90.53;;;31.38;;
22949;SDS011;11641;51.018;4.474;2023-01-26T03:35:04;99.90;;;33.17;;
22949;SDS011;11641;51.018;4.474;2023-01-26T03:37:39;90.60;;;31.25;;
22949;SDS011;11641;51.018;4.474;2023-01-26T03:40:07;92.15;;;31.90;;
22949;SDS011;11641;51.018;4.474;2023-01-26T03:42:53;93.78;;;30.75;;
22949;SDS011;11641;51.018;4.474;2023-01-26T03:45:37;99.18;;;33.30;;
22949;SDS011;11641;51.018;4.474;2023-01-26T03:51:05;63.63;;;21.30;;
22949;SDS011;11641;51.018;4.474;2023-01-26T03:53:49;84.75;;;29.70;;
22949;SDS011;11641;51.018;4.474;2023-01-26T03:56:33;84.22;;;29.45;;
22949;SDS011;11641;51.018;4.474;2023-01-26T03:59:03;81.43;;;27.33;;
22949;SDS011;11641;51.018;4.474;2023-01-26T04:03:59;79.85;;;27.77;;
22949;SDS011;11641;51.018;4.474;2023-01-26T04:09:29;74.35;;;27.08;;
22949;SDS011;11641;51.018;4.474;2023-01-26T04:11:55;77.93;;;26.00;;
22949;SDS011;11641;51.018;4.474;2023-01-26T04:14:23;86.00;;;29.88;;
22949;SDS011;11641;51.018;4.474;2023-01-26T04:17:08;85.00;;;28.42;;
22949;SDS011;11641;51.018;4.474;2023-01-26T04:19:54;81.95;;;28.98;;
22949;SDS011;11641;51.018;4.474;2023-01-26T04:22:39;85.18;;;28.35;;
22949;SDS011;11641;51.018;4.474;2023-01-26T04:25:13;76.65;;;26.30;;
22949;SDS011;11641;51.018;4.474;2023-01-26T04:27:40;73.35;;;26.52;;
22949;SDS011;11641;51.018;4.474;2023-01-26T04:30:07;80.30;;;27.15;;
22949;SDS011;11641;51.018;4.474;2023-01-26T04:32:34;74.55;;;25.88;;
22949;SDS011;11641;51.018;4.474;2023-01-26T04:35:00;72.68;;;25.02;;
22949;SDS011;11641;51.018;4.474;2023-01-26T04:37:26;72.20;;;25.13;;
22949;SDS011;11641;51.018;4.474;2023-01-26T04:39:51;72.38;;;24.90;;
22949;SDS011;11641;51.018;4.474;2023-01-26T04:42:22;66.20;;;23.27;;
22949;SDS011;11641;51.018;4.474;2023-01-26T04:44:49;66.82;;;24.10;;
22949;SDS011;11641;51.018;4.474;2023-01-26T04:47:18;60.97;;;22.20;;
22949;SDS011;11641;51.018;4.474;2023-01-26T04:49:44;61.40;;;21.00;;
22949;SDS011;11641;51.018;4.474;2023-01-26T04:52:10;56.35;;;21.00;;
22949;SDS011;11641;51.018;4.474;2023-01-26T04:54:35;59.53;;;20.90;;
22949;SDS011;11641;51.018;4.474;2023-01-26T04:57:01;55.97;;;20.08;;
22949;SDS011;11641;51.018;4.474;2023-01-26T04:59:27;57.00;;;20.33;;
22949;SDS011;11641;51.018;4.474;2023-01-26T05:01:52;53.80;;;19.77;;
22949;SDS011;11641;51.018;4.474;2023-01-26T05:04:18;50.42;;;19.70;;
22949;SDS011;11641;51.018;4.474;2023-01-26T05:06:44;53.45;;;19.77;;
22949;SDS011;11641;51.018;4.474;2023-01-26T05:09:10;57.40;;;20.30;;
22949;SDS011;11641;51.018;4.474;2023-01-26T05:11:35;55.55;;;18.15;;
22949;SDS011;11641;51.018;4.474;2023-01-26T05:14:01;61.50;;;21.02;;
22949;SDS011;11641;51.018;4.474;2023-01-26T05:16:29;55.50;;;19.42;;
22949;SDS011;11641;51.018;4.474;2023-01-26T05:18:55;59.05;;;21.13;;
22949;SDS011;11641;51.018;4.474;2023-01-26T05:21:22;53.00;;;19.90;;
22949;SDS011;11641;51.018;4.474;2023-01-26T05:23:49;55.38;;;19.90;;
22949;SDS011;11641;51.018;4.474;2023-01-26T05:26:15;58.42;;;20.05;;
22949;SDS011;11641;51.018;4.474;2023-01-26T05:28:41;54.90;;;20.13;;
22949;SDS011;11641;51.018;4.474;2023-01-26T05:31:06;57.50;;;21.13;;
22949;SDS011;11641;51.018;4.474;2023-01-26T05:33:32;57.13;;;21.15;;
22949;SDS011;11641;51.018;4.474;2023-01-26T05:36:02;60.22;;;21.23;;
22949;SDS011;11641;51.018;4.474;2023-01-26T05:38:30;52.15;;;20.13;;
22949;SDS011;11641;51.018;4.474;2023-01-26T05:40:56;55.78;;;18.95;;
22949;SDS011;11641;51.018;4.474;2023-01-26T05:43:23;57.10;;;20.80;;
22949;SDS011;11641;51.018;4.474;2023-01-26T05:45:49;51.80;;;19.02;;
22949;SDS011;11641;51.018;4.474;2023-01-26T05:48:14;50.10;;;19.00;;
22949;SDS011;11641;51.018;4.474;2023-01-26T05:50:40;48.67;;;18.17;;
22949;SDS011;11641;51.018;4.474;2023-01-26T05:53:06;49.25;;;19.40;;
22949;SDS011;11641;51.018;4.474;2023-01-26T05:55:31;44.97;;;17.90;;
22949;SDS011;11641;51.018;4.474;2023-01-26T05:57:59;55.70;;;18.48;;
22949;SDS011;11641;51.018;4.474;2023-01-26T06:00:25;47.75;;;17.35;;
22949;SDS011;11641;51.018;4.474;2023-01-26T06:02:53;45.90;;;17.92;;
22949;SDS011;11641;51.018;4.474;2023-01-26T06:05:19;54.45;;;19.20;;
22949;SDS011;11641;51.018;4.474;2023-01-26T06:07:47;52.25;;;18.40;;
22949;SDS011;11641;51.018;4.474;2023-01-26T06:10:12;47.97;;;18.02;;
22949;SDS011;11641;51.018;4.474;2023-01-26T06:12:38;51.65;;;18.45;;
22949;SDS011;11641;51.018;4.474;2023-01-26T06:15:05;47.78;;;17.80;;
22949;SDS011;11641;51.018;4.474;2023-01-26T06:17:34;49.20;;;18.58;;
22949;SDS011;11641;51.018;4.474;2023-01-26T06:20:00;47.70;;;17.85;;
22949;SDS011;11641;51.018;4.474;2023-01-26T06:22:25;46.70;;;18.25;;
22949;SDS011;11641;51.018;4.474;2023-01-26T06:24:51;41.47;;;16.63;;
22949;SDS011;11641;51.018;4.474;2023-01-26T06:27:19;48.38;;;17.23;;
22949;SDS011;11641;51.018;4.474;2023-01-26T06:29:44;51.60;;;17.40;;
22949;SDS011;11641;51.018;4.474;2023-01-26T06:32:11;45.92;;;17.23;;
22949;SDS011;11641;51.018;4.474;2023-01-26T06:34:39;52.00;;;17.42;;
22949;SDS011;11641;51.018;4.474;2023-01-26T06:37:05;46.35;;;17.80;;
22949;SDS011;11641;51.018;4.474;2023-01-26T06:39:34;47.83;;;18.02;;
22949;SDS011;11641;51.018;4.474;2023-01-26T06:42:00;51.00;;;18.17;;
22949;SDS011;11641;51.018;4.474;2023-01-26T06:44:28;42.63;;;16.33;;
22949;SDS011;11641;51.018;4.474;2023-01-26T06:46:54;45.33;;;17.88;;
22949;SDS011;11641;51.018;4.474;2023-01-26T06:49:22;43.40;;;16.17;;
22949;SDS011;11641;51.018;4.474;2023-01-26T06:54:28;47.15;;;17.98;;
22949;SDS011;11641;51.018;4.474;2023-01-26T06:56:54;47.05;;;16.65;;
22949;SDS011;11641;51.018;4.474;2023-01-26T06:59:22;46.97;;;17.48;;
22949;SDS011;11641;51.018;4.474;2023-01-26T07:01:48;48.90;;;17.50;;
22949;SDS011;11641;51.018;4.474;2023-01-26T07:04:13;41.53;;;16.23;;
22949;SDS011;11641;51.018;4.474;2023-01-26T07:06:42;46.55;;;16.45;;
22949;SDS011;11641;51.018;4.474;2023-01-26T07:09:08;43.92;;;16.08;;
22949;SDS011;11641;51.018;4.474;2023-01-26T07:11:34;43.50;;;15.85;;
22949;SDS011;11641;51.018;4.474;2023-01-26T07:14:02;41.78;;;15.52;;
22949;SDS011;11641;51.018;4.474;2023-01-26T07:16:28;46.00;;;16.52;;
22949;SDS011;11641;51.018;4.474;2023-01-26T07:18:54;42.20;;;16.45;;
22949;SDS011;11641;51.018;4.474;2023-01-26T07:21:22;49.58;;;17.52;;
22949;SDS011;11641;51.018;4.474;2023-01-26T07:23:48;46.63;;;16.50;;
22949;SDS011;11641;51.018;4.474;2023-01-26T07:26:17;49.28;;;18.20;;
22949;SDS011;11641;51.018;4.474;2023-01-26T07:28:45;45.88;;;17.00;;
22949;SDS011;11641;51.018;4.474;2023-01-26T07:31:11;55.53;;;18.90;;
22949;SDS011;11641;51.018;4.474;2023-01-26T07:33:37;47.83;;;17.88;;
22949;SDS011;11641;51.018;4.474;2023-01-26T07:36:08;50.05;;;18.52;;
22949;SDS011;11641;51.018;4.474;2023-01-26T07:38:35;49.60;;;17.67;;
22949;SDS011;11641;51.018;4.474;2023-01-26T07:41:08;46.35;;;17.60;;
22949;SDS011;11641;51.018;4.474;2023-01-26T07:43:36;51.67;;;17.80;;
22949;SDS011;11641;51.018;4.474;2023-01-26T07:46:06;47.15;;;17.08;;
22949;SDS011;11641;51.018;4.474;2023-01-26T07:48:34;53.15;;;18.65;;
22949;SDS011;11641;51.018;4.474;2023-01-26T07:51:00;47.95;;;18.27;;
22949;SDS011;11641;51.018;4.474;2023-01-26T07:53:27;50.13;;;17.73;;
22949;SDS011;11641;51.018;4.474;2023-01-26T07:56:10;48.20;;;17.52;;
22949;SDS011;11641;51.018;4.474;2023-01-26T07:58:38;57.55;;;19.13;;
22949;SDS011;11641;51.018;4.474;2023-01-26T08:01:13;52.38;;;17.38;;
22949;SDS011;11641;51.018;4.474;2023-01-26T08:03:39;50.28;;;16.25;;
22949;SDS011;11641;51.018;4.474;2023-01-26T08:06:06;44.15;;;16.58;;
22949;SDS011;11641;51.018;4.474;2023-01-26T08:08:33;50.40;;;17.80;;
22949;SDS011;11641;51.018;4.474;2023-01-26T08:10:59;51.78;;;18.77;;
22949;SDS011;11641;51.018;4.474;2023-01-26T08:13:26;46.70;;;16.73;;
22949;SDS011;11641;51.018;4.474;2023-01-26T08:15:52;45.53;;;17.60;;
22949;SDS011;11641;51.018;4.474;2023-01-26T08:18:22;46.08;;;16.90;;
22949;SDS011;11641;51.018;4.474;2023-01-26T08:20:51;44.97;;;17.55;;
22949;SDS011;11641;51.018;4.474;2023-01-26T08:23:18;46.35;;;16.73;;
22949;SDS011;11641;51.018;4.474;2023-01-26T08:25:44;49.90;;;18.67;;
22949;SDS011;11641;51.018;4.474;2023-01-26T08:28:10;43.92;;;17.35;;
22949;SDS011;11641;51.018;4.474;2023-01-26T08:30:36;43.35;;;16.27;;
22949;SDS011;11641;51.018;4.474;2023-01-26T08:33:02;45.47;;;16.80;;
22949;SDS011;11641;51.018;4.474;2023-01-26T08:35:29;40.70;;;16.08;;
22949;SDS011;11641;51.018;4.474;2023-01-26T08:37:56;41.88;;;16.63;;
22949;SDS011;11641;51.018;4.474;2023-01-26T08:40:22;38.20;;;15.32;;
22949;SDS011;11641;51.018;4.474;2023-01-26T08:42:49;35.72;;;14.25;;
22949;SDS011;11641;51.018;4.474;2023-01-26T08:45:15;36.33;;;14.77;;
22949;SDS011;11641;51.018;4.474;2023-01-26T08:47:40;40.55;;;16.02;;
22949;SDS011;11641;51.018;4.474;2023-01-26T08:50:06;42.13;;;16.17;;
22949;SDS011;11641;51.018;4.474;2023-01-26T08:52:33;38.33;;;16.60;;
22949;SDS011;11641;51.018;4.474;2023-01-26T08:55:01;40.53;;;15.80;;
22949;SDS011;11641;51.018;4.474;2023-01-26T08:57:28;38.70;;;15.40;;
22949;SDS011;11641;51.018;4.474;2023-01-26T08:59:54;39.78;;;15.65;;
22949;SDS011;11641;51.018;4.474;2023-01-26T09:02:20;40.58;;;14.93;;
22949;SDS011;11641;51.018;4.474;2023-01-26T09:04:45;37.60;;;15.13;;
22949;SDS011;11641;51.018;4.474;2023-01-26T09:07:11;38.20;;;14.93;;
22949;SDS011;11641;51.018;4.474;2023-01-26T09:09:37;38.38;;;15.98;;
22949;SDS011;11641;51.018;4.474;2023-01-26T09:12:02;35.90;;;15.38;;
22949;SDS011;11641;51.018;4.474;2023-01-26T09:14:28;34.33;;;14.18;;
22949;SDS011;11641;51.018;4.474;2023-01-26T09:16:54;39.08;;;14.82;;
22949;SDS011;11641;51.018;4.474;2023-01-26T09:19:22;37.20;;;15.43;;
22949;SDS011;11641;51.018;4.474;2023-01-26T09:21:51;32.53;;;14.48;;
22949;SDS011;11641;51.018;4.474;2023-01-26T09:24:17;31.92;;;14.43;;
22949;SDS011;11641;51.018;4.474;2023-01-26T09:26:45;35.90;;;15.02;;
22949;SDS011;11641;51.018;4.474;2023-01-26T09:29:11;31.20;;;14.43;;
22949;SDS011;11641;51.018;4.474;2023-01-26T09:31:37;33.92;;;14.90;;
22949;SDS011;11641;51.018;4.474;2023-01-26T09:34:03;36.95;;;15.32;;
22949;SDS011;11641;51.018;4.474;2023-01-26T09:36:31;35.28;;;15.88;;
22949;SDS011;11641;51.018;4.474;2023-01-26T09:38:57;36.90;;;16.13;;
22949;SDS011;11641;51.018;4.474;2023-01-26T09:44:19;39.88;;;15.30;;
22949;SDS011;11641;51.018;4.474;2023-01-26T09:49:38;32.92;;;14.60;;
22949;SDS011;11641;51.018;4.474;2023-01-26T09:54:51;36.50;;;15.07;;
22949;SDS011;11641;51.018;4.474;2023-01-26T09:57:41;35.85;;;16.50;;
22949;SDS011;11641;51.018;4.474;2023-01-26T10:06:10;35.00;;;14.93;;
22949;SDS011;11641;51.018;4.474;2023-01-26T10:08:57;40.58;;;16.40;;
22949;SDS011;11641;51.018;4.474;2023-01-26T10:16:46;38.65;;;16.23;;
22949;SDS011;11641;51.018;4.474;2023-01-26T10:19:29;43.80;;;15.35;;
22949;SDS011;11641;51.018;4.474;2023-01-26T10:22:21;40.95;;;16.65;;
22949;SDS011;11641;51.018;4.474;2023-01-26T10:24:56;42.72;;;16.70;;
22949;SDS011;11641;51.018;4.474;2023-01-26T10:27:23;44.83;;;17.75;;
22949;SDS011;11641;51.018;4.474;2023-01-26T10:29:49;46.97;;;18.55;;
22949;SDS011;11641;51.018;4.474;2023-01-26T10:32:17;69.30;;;18.55;;
22949;SDS011;11641;51.018;4.474;2023-01-26T10:34:47;47.92;;;17.30;;
22949;SDS011;11641;51.018;4.474;2023-01-26T10:37:18;61.67;;;18.77;;
22949;SDS011;11641;51.018;4.474;2023-01-26T10:40:01;46.90;;;18.02;;
22949;SDS011;11641;51.018;4.474;2023-01-26T10:42:32;57.97;;;17.02;;
22949;SDS011;11641;51.018;4.474;2023-01-26T10:45:00;57.72;;;17.90;;
22949;SDS011;11641;51.018;4.474;2023-01-26T10:47:27;50.08;;;18.27;;
22949;SDS011;11641;51.018;4.474;2023-01-26T10:52:55;70.55;;;30.88;;
22949;SDS011;11641;51.018;4.474;2023-01-26T10:55:30;50.83;;;17.67;;
22949;SDS011;11641;51.018;4.474;2023-01-26T10:58:00;51.20;;;18.30;;
22949;SDS011;11641;51.018;4.474;2023-01-26T11:00:32;43.47;;;16.55;;
22949;SDS011;11641;51.018;4.474;2023-01-26T11:03:07;38.10;;;15.52;;
22949;SDS011;11641;51.018;4.474;2023-01-26T11:05:42;62.33;;;16.87;;
22949;SDS011;11641;51.018;4.474;2023-01-26T11:08:31;61.17;;;19.42;;
22949;SDS011;11641;51.018;4.474;2023-01-26T11:11:01;58.08;;;16.10;;
22949;SDS011;11641;51.018;4.474;2023-01-26T11:13:28;49.70;;;14.77;;
22949;SDS011;11641;51.018;4.474;2023-01-26T11:16:08;44.25;;;14.48;;
22949;SDS011;11641;51.018;4.474;2023-01-26T11:18:58;50.55;;;16.30;;
22949;SDS011;11641;51.018;4.474;2023-01-26T11:21:30;48.17;;;15.45;;
22949;SDS011;11641;51.018;4.474;2023-01-26T11:24:33;45.83;;;14.00;;
22949;SDS011;11641;51.018;4.474;2023-01-26T11:27:33;54.17;;;15.05;;
22949;SDS011;11641;51.018;4.474;2023-01-26T11:30:04;49.05;;;14.55;;
22949;SDS011;11641;51.018;4.474;2023-01-26T11:40:32;44.10;;;14.93;;
22949;SDS011;11641;51.018;4.474;2023-01-26T11:48:38;39.45;;;12.65;;
22949;SDS011;11641;51.018;4.474;2023-01-26T11:51:44;46.97;;;13.25;;
22949;SDS011;11641;51.018;4.474;2023-01-26T11:54:31;50.00;;;13.43;;
22949;SDS011;11641;51.018;4.474;2023-01-26T11:57:24;36.05;;;11.63;;
22949;SDS011;11641;51.018;4.474;2023-01-26T12:02:32;49.30;;;12.02;;
22949;SDS011;11641;51.018;4.474;2023-01-26T12:10:58;46.85;;;9.90;;
22949;SDS011;11641;51.018;4.474;2023-01-26T12:13:45;34.83;;;10.52;;
22949;SDS011;11641;51.018;4.474;2023-01-26T12:16:29;41.22;;;10.38;;
22949;SDS011;11641;51.018;4.474;2023-01-26T12:24:56;41.47;;;9.40;;
22949;SDS011;11641;51.018;4.474;2023-01-26T12:27:41;31.05;;;8.35;;
22949;SDS011;11641;51.018;4.474;2023-01-26T12:30:29;34.40;;;9.35;;
22949;SDS011;11641;51.018;4.474;2023-01-26T12:32:59;27.75;;;8.43;;
22949;SDS011;11641;51.018;4.474;2023-01-26T12:41:22;38.17;;;8.82;;
22949;SDS011;11641;51.018;4.474;2023-01-26T12:55:18;19.60;;;4.70;;
22949;SDS011;11641;51.018;4.474;2023-01-26T12:57:55;16.90;;;4.00;;
22949;SDS011;11641;51.018;4.474;2023-01-26T13:00:25;28.27;;;4.95;;
22949;SDS011;11641;51.018;4.474;2023-01-26T13:03:00;22.48;;;4.85;;
22949;SDS011;11641;51.018;4.474;2023-01-26T13:21:27;143.73;;;90.45;;
22949;SDS011;11641;51.018;4.474;2023-01-26T13:26:43;14.63;;;2.75;;
22949;SDS011;11641;51.018;4.474;2023-01-26T13:31:54;15.80;;;2.43;;
22949;SDS011;11641;51.018;4.474;2023-01-26T13:37:14;15.57;;;3.25;;
22949;SDS011;11641;51.018;4.474;2023-01-26T13:40:05;28.08;;;2.92;;
22949;SDS011;11641;51.018;4.474;2023-01-26T13:48:14;13.65;;;2.30;;
22949;SDS011;11641;51.018;4.474;2023-01-26T13:50:45;19.85;;;2.63;;
22949;SDS011;11641;51.018;4.474;2023-01-26T13:59:17;22.08;;;2.45;;
22949;SDS011;11641;51.018;4.474;2023-01-26T14:01:47;20.73;;;2.88;;
22949;SDS011;11641;51.018;4.474;2023-01-26T14:04:19;18.13;;;3.03;;
22949;SDS011;11641;51.018;4.474;2023-01-26T14:06:50;19.35;;;3.28;;
22949;SDS011;11641;51.018;4.474;2023-01-26T14:09:27;18.48;;;3.50;;
22949;SDS011;11641;51.018;4.474;2023-01-26T14:11:59;21.58;;;2.90;;
22949;SDS011;11641;51.018;4.474;2023-01-26T14:14:28;27.23;;;3.05;;
22949;SDS011;11641;51.018;4.474;2023-01-26T14:16:57;21.33;;;3.03;;
22949;SDS011;11641;51.018;4.474;2023-01-26T14:19:26;18.67;;;2.83;;
22949;SDS011;11641;51.018;4.474;2023-01-26T14:21:54;15.80;;;2.75;;
22949;SDS011;11641;51.018;4.474;2023-01-26T14:24:25;22.00;;;3.47;;
22949;SDS011;11641;51.018;4.474;2023-01-26T14:26:59;17.65;;;3.10;;
22949;SDS011;11641;51.018;4.474;2023-01-26T14:29:29;16.67;;;2.58;;
22949;SDS011;11641;51.018;4.474;2023-01-26T14:31:58;13.93;;;2.58;;
22949;SDS011;11641;51.018;4.474;2023-01-26T14:34:25;20.73;;;2.97;;
22949;SDS011;11641;51.018;4.474;2023-01-26T14:37:12;16.65;;;2.90;;
22949;SDS011;11641;51.018;4.474;2023-01-26T14:39:43;19.92;;;2.58;;
22949;SDS011;11641;51.018;4.474;2023-01-26T14:42:18;12.98;;;2.63;;
22949;SDS011;11641;51.018;4.474;2023-01-26T14:44:44;19.52;;;3.05;;
22949;SDS011;11641;51.018;4.474;2023-01-26T14:47:15;22.98;;;2.90;;
22949;SDS011;11641;51.018;4.474;2023-01-26T14:54:50;20.10;;;2.83;;
22949;SDS011;11641;51.018;4.474;2023-01-26T14:57:26;14.80;;;2.90;;
22949;SDS011;11641;51.018;4.474;2023-01-26T14:59:53;15.52;;;2.97;;
22949;SDS011;11641;51.018;4.474;2023-01-26T15:02:22;15.00;;;2.58;;
22949;SDS011;11641;51.018;4.474;2023-01-26T15:05:12;15.88;;;2.67;;
22949;SDS011;11641;51.018;4.474;2023-01-26T15:07:44;19.50;;;2.70;;
22949;SDS011;11641;51.018;4.474;2023-01-26T15:10:34;13.60;;;1.75;;
22949;SDS011;11641;51.018;4.474;2023-01-26T15:15:29;10.38;;;2.00;;
22949;SDS011;11641;51.018;4.474;2023-01-26T15:17:59;20.40;;;2.78;;
22949;SDS011;11641;51.018;4.474;2023-01-26T15:22:55;13.73;;;2.42;;
22949;SDS011;11641;51.018;4.474;2023-01-26T15:25:24;14.73;;;2.58;;
22949;SDS011;11641;51.018;4.474;2023-01-26T15:27:58;15.88;;;2.72;;
22949;SDS011;11641;51.018;4.474;2023-01-26T15:30:31;14.68;;;2.15;;
22949;SDS011;11641;51.018;4.474;2023-01-26T15:32:59;12.50;;;2.00;;
22949;SDS011;11641;51.018;4.474;2023-01-26T15:35:30;18.40;;;2.78;;
22949;SDS011;11641;51.018;4.474;2023-01-26T15:37:58;20.27;;;3.17;;
22949;SDS011;11641;51.018;4.474;2023-01-26T15:40:24;12.85;;;2.65;;
22949;SDS011;11641;51.018;4.474;2023-01-26T15:42:50;23.30;;;8.73;;
22949;SDS011;11641;51.018;4.474;2023-01-26T15:45:28;17.10;;;3.90;;
22949;SDS011;11641;51.018;4.474;2023-01-26T15:47:57;16.63;;;3.00;;
22949;SDS011;11641;51.018;4.474;2023-01-26T15:50:25;15.85;;;2.25;;
22949;SDS011;11641;51.018;4.474;2023-01-26T15:52:51;16.75;;;2.40;;
22949;SDS011;11641;51.018;4.474;2023-01-26T15:55:25;13.13;;;2.17;;
22949;SDS011;11641;51.018;4.474;2023-01-26T15:57:54;10.52;;;1.40;;
22949;SDS011;11641;51.018;4.474;2023-01-26T16:00:20;12.10;;;1.45;;
22949;SDS011;11641;51.018;4.474;2023-01-26T16:02:47;8.23;;;1.15;;
22949;SDS011;11641;51.018;4.474;2023-01-26T16:05:15;11.30;;;1.95;;
22949;SDS011;11641;51.018;4.474;2023-01-26T16:07:42;10.52;;;1.70;;
22949;SDS011;11641;51.018;4.474;2023-01-26T16:10:10;12.00;;;2.03;;
22949;SDS011;11641;51.018;4.474;2023-01-26T16:12:36;12.55;;;1.55;;
22949;SDS011;11641;51.018;4.474;2023-01-26T16:15:02;12.30;;;1.77;;
22949;SDS011;11641;51.018;4.474;2023-01-26T16:17:42;9.80;;;1.50;;
22949;SDS011;11641;51.018;4.474;2023-01-26T16:20:08;15.77;;;1.92;;
22949;SDS011;11641;51.018;4.474;2023-01-26T16:22:35;13.93;;;1.92;;
22949;SDS011;11641;51.018;4.474;2023-01-26T16:25:01;10.02;;;1.95;;
22949;SDS011;11641;51.018;4.474;2023-01-26T16:27:26;10.57;;;1.77;;
22949;SDS011;11641;51.018;4.474;2023-01-26T16:29:52;9.60;;;1.80;;
22949;SDS011;11641;51.018;4.474;2023-01-26T16:32:25;13.07;;;1.90;;
22949;SDS011;11641;51.018;4.474;2023-01-26T16:34:52;6.95;;;2.50;;
22949;SDS011;11641;51.018;4.474;2023-01-26T16:37:18;14.23;;;2.33;;
22949;SDS011;11641;51.018;4.474;2023-01-26T16:39:44;9.77;;;1.73;;
22949;SDS011;11641;51.018;4.474;2023-01-26T16:42:12;13.13;;;2.28;;
22949;SDS011;11641;51.018;4.474;2023-01-26T16:44:43;8.10;;;2.00;;
22949;SDS011;11641;51.018;4.474;2023-01-26T16:47:14;11.82;;;2.10;;
22949;SDS011;11641;51.018;4.474;2023-01-26T16:49:42;12.45;;;2.70;;